createdAt,value
2018-05-01T00:00:33.964Z,95.00
2018-05-01T00:03:02.251Z,95.70
2018-05-01T00:05:31.157Z,96.40
2018-05-01T00:07:59.605Z,95.20
2018-05-01T00:10:27.896Z,95.40
2018-05-01T00:12:56.423Z,96.20
2018-05-01T00:15:25.275Z,96.20
2018-05-01T00:17:53.626Z,95.30
2018-05-01T00:20:21.943Z,95.10
2018-05-01T00:22:50.220Z,96.80
2018-05-01T00:25:19.170Z,94.90
2018-05-01T00:27:48.195Z,95.70
2018-05-01T00:30:16.956Z,95.70
2018-05-01T00:32:45.919Z,95.10
2018-05-01T00:35:15.558Z,95.60
2018-05-01T00:37:43.983Z,96.40
2018-05-01T00:40:12.934Z,95.50
2018-05-01T00:42:41.427Z,96.40
2018-05-01T00:45:09.742Z,96.50
2018-05-01T00:47:38.138Z,95.60
2018-05-01T00:50:06.430Z,96.00
2018-05-01T00:52:45.408Z,95.80
2018-05-01T00:55:14.467Z,97.30
2018-05-01T00:57:42.759Z,97.30
2018-05-01T01:00:11.451Z,96.40
2018-05-01T01:02:39.732Z,96.80
2018-05-01T01:05:08.102Z,97.00
2018-05-01T01:07:36.739Z,97.20
2018-05-01T01:10:05.382Z,97.90
2018-05-01T01:12:33.668Z,98.20
2018-05-01T01:15:03.022Z,97.50
2018-05-01T01:17:31.311Z,97.70
2018-05-01T01:19:59.591Z,97.50
2018-05-01T01:22:28.647Z,96.90
2018-05-01T01:24:56.927Z,97.70
2018-05-01T01:27:25.854Z,97.70
2018-05-01T01:29:54.494Z,97.90
2018-05-01T01:32:22.771Z,97.10
2018-05-01T01:34:51.497Z,97.50
2018-05-01T01:37:19.051Z,97.40
2018-05-01T01:39:46.539Z,97.30
2018-05-01T01:42:14.036Z,97.30
2018-05-01T01:44:41.944Z,97.20
2018-05-01T01:47:09.447Z,97.60
2018-05-01T01:49:36.946Z,97.70
2018-05-01T01:52:04.495Z,98.10
2018-05-01T01:54:31.983Z,98.80
2018-05-01T01:56:59.474Z,98.20
2018-05-01T01:59:26.994Z,98.80
2018-05-01T02:01:58.522Z,98.10
2018-05-01T02:04:26.035Z,98.50
2018-05-01T02:06:53.566Z,99.00
2018-05-01T02:09:21.059Z,98.70
2018-05-01T02:11:49.019Z,98.90
2018-05-01T02:14:16.546Z,99.00
2018-05-01T02:16:44.030Z,99.40
2018-05-01T02:19:11.515Z,99.70
2018-05-01T02:21:39.807Z,99.80
2018-05-01T02:24:07.299Z,99.80
2018-05-01T02:26:34.799Z,99.90
2018-05-01T02:29:02.328Z,99.90
2018-05-01T02:31:29.828Z,99.90
2018-05-01T02:33:58.097Z,99.90
2018-05-01T02:36:25.649Z,99.90
2018-05-01T02:38:54.607Z,99.90
2018-05-01T02:41:22.109Z,99.90
2018-05-01T02:43:50.367Z,99.90
2018-05-01T02:46:17.912Z,99.90
2018-05-01T02:48:45.615Z,99.90
2018-05-01T02:51:13.123Z,99.90
2018-05-01T02:53:40.654Z,99.90
2018-05-01T02:56:08.280Z,99.90
2018-05-01T02:58:35.783Z,99.90
2018-05-01T03:01:03.322Z,99.90
2018-05-01T03:03:30.811Z,99.90
2018-05-01T03:05:58.299Z,99.90
2018-05-01T03:08:25.853Z,99.90
2018-05-01T03:10:53.554Z,99.90
2018-05-01T03:13:21.052Z,99.90
2018-05-01T03:15:48.610Z,99.90
2018-05-01T03:18:16.117Z,99.90
2018-05-01T03:20:43.691Z,99.90
2018-05-01T03:23:11.987Z,99.90
2018-05-01T03:25:39.474Z,99.90
2018-05-01T03:28:06.960Z,99.90
2018-05-01T03:30:34.489Z,99.90
2018-05-01T03:33:01.993Z,99.90
2018-05-01T03:35:30.750Z,99.90
2018-05-01T03:37:58.270Z,99.90
2018-05-01T03:40:25.762Z,99.90
2018-05-01T03:42:53.242Z,99.90
2018-05-01T03:45:20.755Z,99.90
2018-05-01T03:47:48.802Z,99.90
2018-05-01T03:50:17.050Z,99.90
2018-05-01T03:52:44.588Z,99.90
2018-05-01T03:55:12.127Z,99.90
2018-05-01T03:57:39.606Z,99.90
2018-05-01T04:00:07.091Z,99.90
2018-05-01T04:02:34.627Z,99.90
2018-05-01T04:05:02.287Z,99.90
2018-05-01T04:07:29.808Z,99.90
2018-05-01T04:09:57.606Z,99.90
2018-05-01T04:12:25.102Z,99.90
2018-05-01T04:14:52.591Z,99.90
2018-05-01T04:17:20.107Z,99.90
2018-05-01T04:19:49.134Z,99.90
2018-05-01T04:22:16.618Z,99.90
2018-05-01T04:24:44.194Z,99.90
2018-05-01T04:27:11.682Z,99.90
2018-05-01T04:29:39.179Z,99.90
2018-05-01T04:32:06.722Z,99.90
2018-05-01T04:34:34.975Z,99.90
2018-05-01T04:37:02.458Z,99.90
2018-05-01T04:39:30.764Z,99.90
2018-05-01T04:41:58.563Z,99.90
2018-05-01T04:44:26.063Z,99.90
2018-05-01T04:46:53.728Z,99.90
2018-05-01T04:49:21.215Z,99.90
2018-05-01T04:51:48.766Z,99.90
2018-05-01T04:54:16.251Z,99.90
2018-05-01T04:56:44.342Z,99.90
2018-05-01T04:59:11.834Z,99.90
2018-05-01T05:01:39.363Z,99.90
2018-05-01T05:04:06.850Z,99.90
2018-05-01T05:06:34.334Z,99.90
2018-05-01T05:09:02.494Z,99.90
2018-05-01T05:11:30.107Z,99.90
2018-05-01T05:13:57.803Z,99.90
2018-05-01T05:16:26.515Z,99.90
2018-05-01T05:18:54.014Z,99.90
2018-05-01T05:21:21.499Z,99.90
2018-05-01T05:23:49.037Z,99.90
2018-05-01T05:26:16.527Z,99.90
2018-05-01T05:28:44.011Z,99.90
2018-05-01T05:31:12.875Z,99.90
2018-05-01T05:33:40.355Z,99.90
2018-05-01T05:36:07.843Z,99.90
2018-05-01T05:38:35.379Z,99.90
2018-05-01T05:41:02.869Z,99.90
2018-05-01T05:43:30.358Z,99.90
2018-05-01T05:45:58.634Z,99.90
2018-05-01T05:48:26.879Z,99.90
2018-05-01T05:50:54.422Z,99.90
2018-05-01T05:53:21.937Z,99.90
2018-05-01T05:55:49.436Z,99.90
2018-05-01T05:58:16.914Z,99.90
2018-05-01T06:00:44.443Z,99.90
2018-05-01T06:03:11.931Z,99.90
2018-05-01T06:05:39.413Z,99.90
2018-05-01T06:08:07.030Z,99.90
2018-05-01T06:10:34.523Z,99.90
2018-05-01T06:13:02.043Z,99.90
2018-05-01T06:15:29.591Z,99.90
2018-05-01T06:17:57.106Z,99.90
2018-05-01T06:20:27.462Z,99.90
2018-05-01T06:22:55.227Z,99.90
2018-05-01T06:25:23.334Z,99.90
2018-05-01T06:27:56.067Z,99.90
2018-05-01T06:30:23.598Z,99.90
2018-05-01T06:32:53.903Z,99.90
2018-05-01T06:35:21.391Z,99.90
2018-05-01T06:37:48.877Z,99.90
2018-05-01T06:40:16.407Z,99.90
2018-05-01T06:42:44.658Z,99.90
2018-05-01T06:45:12.142Z,99.90
2018-05-01T06:47:39.710Z,99.90
2018-05-01T06:50:07.515Z,99.90
2018-05-01T06:52:35.204Z,99.90
2018-05-01T06:55:02.722Z,99.90
2018-05-01T06:57:30.208Z,99.90
2018-05-01T06:59:57.726Z,99.90
2018-05-01T07:02:25.215Z,99.90
2018-05-01T07:04:52.726Z,99.90
2018-05-01T07:07:20.478Z,99.90
2018-05-01T07:09:48.011Z,99.90
2018-05-01T07:12:15.798Z,99.90
2018-05-01T07:14:44.316Z,99.90
2018-05-01T07:17:12.233Z,99.90
2018-05-01T07:19:39.726Z,99.90
2018-05-01T07:22:07.807Z,99.90
2018-05-01T07:24:36.359Z,99.90
2018-05-01T07:27:04.513Z,99.90
2018-05-01T07:29:32.166Z,99.90
2018-05-01T07:31:59.649Z,99.90
2018-05-01T07:34:27.146Z,99.90
2018-05-01T07:36:57.619Z,99.90
2018-05-01T07:39:25.203Z,99.90
2018-05-01T07:41:52.761Z,99.90
2018-05-01T07:44:20.822Z,99.90
2018-05-01T07:46:48.915Z,99.90
2018-05-01T07:49:16.739Z,99.90
2018-05-01T07:51:44.718Z,99.90
2018-05-01T07:54:12.272Z,99.90
2018-05-01T07:56:39.972Z,99.90
2018-05-01T07:59:07.462Z,99.90
2018-05-01T08:01:35.005Z,99.90
2018-05-01T08:04:02.514Z,99.90
2018-05-01T08:06:30.172Z,99.90
2018-05-01T08:08:57.654Z,99.90
2018-05-01T08:11:25.236Z,99.90
2018-05-01T08:13:52.759Z,99.90
2018-05-01T08:16:20.242Z,99.90
2018-05-01T08:18:47.762Z,99.90
2018-05-01T08:21:15.264Z,99.90
2018-05-01T08:23:43.738Z,99.90
2018-05-01T08:26:12.031Z,99.90
2018-05-01T08:28:40.294Z,99.90
2018-05-01T08:31:07.823Z,99.90
2018-05-01T08:33:35.350Z,99.90
2018-05-01T08:36:04.098Z,99.90
2018-05-01T08:38:31.591Z,99.90
2018-05-01T08:40:59.130Z,99.90
2018-05-01T08:43:26.955Z,99.90
2018-05-01T08:45:54.455Z,99.90
2018-05-01T08:48:22.094Z,99.90
2018-05-01T08:50:49.591Z,99.90
2018-05-01T08:53:17.083Z,99.90
2018-05-01T08:55:44.618Z,99.40
2018-05-01T08:58:12.111Z,98.40
2018-05-01T09:00:39.607Z,98.10
2018-05-01T09:03:07.138Z,99.00
2018-05-01T09:05:35.115Z,96.40
2018-05-01T09:08:02.602Z,95.80
2018-05-01T09:10:30.159Z,94.90
2018-05-01T09:12:58.431Z,94.90
2018-05-01T09:15:25.991Z,94.90
2018-05-01T09:17:53.798Z,95.80
2018-05-01T09:20:22.183Z,95.60
2018-05-01T09:22:49.810Z,96.00
2018-05-01T09:25:17.351Z,95.30
2018-05-01T09:27:44.847Z,94.40
2018-05-01T09:30:12.339Z,93.70
2018-05-01T09:32:39.862Z,93.00
2018-05-01T09:35:07.365Z,91.80
2018-05-01T09:37:34.903Z,92.70
2018-05-01T09:40:02.618Z,90.70
2018-05-01T09:42:30.119Z,90.20
2018-05-01T09:44:57.866Z,90.90
2018-05-01T09:47:25.951Z,90.10
2018-05-01T09:49:53.398Z,90.00
2018-05-01T09:52:21.732Z,89.80
2018-05-01T09:54:50.686Z,90.20
2018-05-01T09:57:19.350Z,90.00
2018-05-01T09:59:47.926Z,89.40
2018-05-01T10:02:16.247Z,86.30
2018-05-01T10:04:44.530Z,84.60
2018-05-01T10:07:12.810Z,82.50
2018-05-01T10:09:41.148Z,81.70
2018-05-01T10:12:09.747Z,79.90
2018-05-01T10:14:37.986Z,78.80
2018-05-01T10:17:06.824Z,82.50
2018-05-01T10:19:35.112Z,82.50
2018-05-01T10:22:03.612Z,83.60
2018-05-01T10:24:32.618Z,85.50
2018-05-01T10:27:00.938Z,85.10
2018-05-01T10:29:29.220Z,82.20
2018-05-01T10:31:57.501Z,81.50
2018-05-01T10:34:25.843Z,82.20
2018-05-01T10:36:54.189Z,78.00
2018-05-01T10:39:23.188Z,74.70
2018-05-01T10:41:51.877Z,70.50
2018-05-01T10:44:20.446Z,74.40
2018-05-01T10:46:48.960Z,78.30
2018-05-01T10:49:18.488Z,80.50
2018-05-01T10:51:47.642Z,75.10
2018-05-01T10:54:15.923Z,75.00
2018-05-01T10:56:44.542Z,71.70
2018-05-01T10:59:12.846Z,69.40
2018-05-01T11:01:44.216Z,66.50
2018-05-01T11:04:12.979Z,66.70
2018-05-01T11:06:41.999Z,65.40
2018-05-01T11:09:10.842Z,67.50
2018-05-01T11:11:39.679Z,65.90
2018-05-01T11:14:07.974Z,64.70
2018-05-01T11:16:36.360Z,65.20
2018-05-01T11:19:04.640Z,65.50
2018-05-01T11:21:33.399Z,61.30
2018-05-01T11:24:02.011Z,61.80
2018-05-01T11:26:30.805Z,59.00
2018-05-01T11:28:59.943Z,57.40
2018-05-01T11:31:28.982Z,56.70
2018-05-01T11:33:57.285Z,56.90
2018-05-01T11:36:25.714Z,58.30
2018-05-01T11:38:54.007Z,58.00
2018-05-01T11:41:22.339Z,57.90
2018-05-01T11:43:51.432Z,58.00
2018-05-01T11:46:19.536Z,59.70
2018-05-01T11:48:48.067Z,60.30
2018-05-01T11:51:16.342Z,60.80
2018-05-01T11:53:45.129Z,63.00
2018-05-01T11:56:13.791Z,66.70
2018-05-01T11:58:42.740Z,66.60
2018-05-01T12:01:11.017Z,65.70
2018-05-01T12:03:39.323Z,65.50
2018-05-01T12:06:07.607Z,62.20
2018-05-01T12:08:35.911Z,59.80
2018-05-01T12:11:04.530Z,60.30
2018-05-01T12:13:32.887Z,63.60
2018-05-01T12:16:01.569Z,63.70
2018-05-01T12:18:30.176Z,63.60
2018-05-01T12:20:58.479Z,65.50
2018-05-01T12:23:26.944Z,66.60
2018-05-01T12:25:55.223Z,66.50
2018-05-01T12:28:23.611Z,66.50
2018-05-01T12:30:51.791Z,66.40
2018-05-01T12:33:20.623Z,68.30
2018-05-01T12:35:48.910Z,73.30
2018-05-01T12:38:17.210Z,72.60
2018-05-01T12:40:45.535Z,72.60
2018-05-01T12:43:14.090Z,72.30
2018-05-01T12:45:42.467Z,68.50
2018-05-01T12:48:10.795Z,68.70
2018-05-01T12:50:39.858Z,64.40
2018-05-01T12:53:08.150Z,64.40
2018-05-01T12:55:36.475Z,65.50
2018-05-01T12:58:05.331Z,62.20
2018-05-01T13:00:34.591Z,59.30
2018-05-01T13:03:03.636Z,59.10
2018-05-01T13:05:32.679Z,65.30
2018-05-01T13:08:00.979Z,66.00
2018-05-01T13:10:30.962Z,61.60
2018-05-01T13:12:59.236Z,60.30
2018-05-01T13:15:28.066Z,63.60
2018-05-01T13:17:56.367Z,62.60
2018-05-01T13:20:24.813Z,60.70
2018-05-01T13:22:53.139Z,59.40
2018-05-01T13:25:22.218Z,60.70
2018-05-01T13:27:55.503Z,60.90
2018-05-01T13:30:24.572Z,61.30
2018-05-01T13:32:52.808Z,61.30
2018-05-01T13:35:21.095Z,59.10
2018-05-01T13:37:50.307Z,56.80
2018-05-01T13:40:18.619Z,57.90
2018-05-01T13:42:49.939Z,56.90
2018-05-01T13:45:18.254Z,57.20
2018-05-01T13:47:46.557Z,56.10
2018-05-01T13:50:15.381Z,58.10
2018-05-01T13:52:43.677Z,59.50
2018-05-01T13:55:12.676Z,62.30
2018-05-01T13:57:40.950Z,59.10
2018-05-01T14:00:09.515Z,58.70
2018-05-01T14:02:42.030Z,59.20
2018-05-01T14:05:10.321Z,59.20
2018-05-01T14:07:38.610Z,59.90
2018-05-01T14:10:08.150Z,59.80
2018-05-01T14:12:36.429Z,58.50
2018-05-01T14:15:04.948Z,57.30
2018-05-01T14:17:33.081Z,55.90
2018-05-01T14:20:01.884Z,56.70
2018-05-01T14:22:30.939Z,57.10
2018-05-01T14:24:59.250Z,57.40
2018-05-01T14:27:28.459Z,59.20
2018-05-01T14:29:57.850Z,58.90
2018-05-01T14:32:26.183Z,58.30
2018-05-01T14:34:54.500Z,56.70
2018-05-01T14:37:22.841Z,58.80
2018-05-01T14:39:51.123Z,58.10
2018-05-01T14:42:19.459Z,58.80
2018-05-01T14:44:47.739Z,56.00
2018-05-01T14:47:16.243Z,56.60
2018-05-01T14:49:47.111Z,57.00
2018-05-01T14:52:16.329Z,57.00
2018-05-01T14:54:44.655Z,58.20
2018-05-01T14:57:13.507Z,58.30
2018-05-01T14:59:42.778Z,57.50
2018-05-01T15:02:11.322Z,59.20
2018-05-01T15:04:40.974Z,57.90
2018-05-01T15:07:09.401Z,57.80
2018-05-01T15:09:38.341Z,57.30
2018-05-01T15:12:06.638Z,59.20
2018-05-01T15:14:35.299Z,62.00
2018-05-01T15:17:03.934Z,59.00
2018-05-01T15:19:32.217Z,57.70
2018-05-01T15:22:01.179Z,58.10
2018-05-01T15:24:29.679Z,58.10
2018-05-01T15:26:58.835Z,58.90
2018-05-01T15:29:27.110Z,61.10
2018-05-01T15:31:56.442Z,59.00
2018-05-01T15:34:24.757Z,60.90
2018-05-01T15:36:53.034Z,60.60
2018-05-01T15:39:21.312Z,59.60
2018-05-01T15:41:50.115Z,60.00
2018-05-01T15:44:19.019Z,60.20
2018-05-01T15:46:48.236Z,61.00
2018-05-01T15:49:16.541Z,60.60
2018-05-01T15:51:44.898Z,61.40
2018-05-01T15:54:14.007Z,60.50
2018-05-01T15:56:42.978Z,60.90
2018-05-01T15:59:11.773Z,61.00
2018-05-01T16:01:40.472Z,60.30
2018-05-01T16:04:08.791Z,59.00
2018-05-01T16:06:37.141Z,59.20
2018-05-01T16:09:05.424Z,58.80
2018-05-01T16:11:33.699Z,58.50
2018-05-01T16:14:02.018Z,57.30
2018-05-01T16:16:30.483Z,56.20
2018-05-01T16:18:59.529Z,58.20
2018-05-01T16:21:29.139Z,58.10
2018-05-01T16:23:58.172Z,61.50
2018-05-01T16:26:26.366Z,60.80
2018-05-01T16:28:54.723Z,62.20
2018-05-01T16:31:23.975Z,62.20
2018-05-01T16:33:52.318Z,62.30
2018-05-01T16:36:20.558Z,62.20
2018-05-01T16:38:49.142Z,61.70
2018-05-01T16:41:17.806Z,61.20
2018-05-01T16:43:45.967Z,59.20
2018-05-01T16:46:14.267Z,59.10
2018-05-01T16:48:42.558Z,59.70
2018-05-01T16:51:11.179Z,60.50
2018-05-01T16:53:41.639Z,63.30
2018-05-01T16:56:09.939Z,63.20
2018-05-01T16:58:38.548Z,61.70
2018-05-01T17:01:07.950Z,62.50
2018-05-01T17:03:36.299Z,62.40
2018-05-01T17:06:05.339Z,62.00
2018-05-01T17:08:34.419Z,63.00
2018-05-01T17:11:03.430Z,63.50
2018-05-01T17:13:31.747Z,63.30
2018-05-01T17:16:00.035Z,64.20
2018-05-01T17:18:28.341Z,63.30
2018-05-01T17:20:56.942Z,62.80
2018-05-01T17:23:25.639Z,61.70
2018-05-01T17:25:54.704Z,62.00
2018-05-01T17:28:23.173Z,61.40
2018-05-01T17:30:52.354Z,63.50
2018-05-01T17:33:20.839Z,64.10
2018-05-01T17:35:49.556Z,64.40
2018-05-01T17:38:18.039Z,65.10
2018-05-01T17:40:46.969Z,64.40
2018-05-01T17:43:15.186Z,64.10
2018-05-01T17:45:44.258Z,65.30
2018-05-01T17:48:12.582Z,65.80
2018-05-01T17:50:40.870Z,64.60
2018-05-01T17:53:10.934Z,65.70
2018-05-01T17:55:39.295Z,66.20
2018-05-01T17:58:10.627Z,64.90
2018-05-01T18:00:38.920Z,66.00
2018-05-01T18:03:07.260Z,69.00
2018-05-01T18:05:36.308Z,72.30
2018-05-01T18:08:04.671Z,72.30
2018-05-01T18:10:33.818Z,73.90
2018-05-01T18:13:02.970Z,75.20
2018-05-01T18:15:31.263Z,74.00
2018-05-01T18:18:00.402Z,73.50
2018-05-01T18:20:29.079Z,78.70
2018-05-01T18:22:57.487Z,74.40
2018-05-01T18:25:25.827Z,75.50
2018-05-01T18:27:59.837Z,75.10
2018-05-01T18:30:28.402Z,75.70
2018-05-01T18:32:57.300Z,80.30
2018-05-01T18:35:25.682Z,78.80
2018-05-01T18:37:53.972Z,77.50
2018-05-01T18:40:22.251Z,78.10
2018-05-01T18:42:50.579Z,77.60
2018-05-01T18:45:18.863Z,77.20
2018-05-01T18:47:54.103Z,77.40
2018-05-01T18:50:22.386Z,76.80
2018-05-01T18:52:50.667Z,77.60
2018-05-01T18:55:19.010Z,78.60
2018-05-01T18:57:47.482Z,79.20
2018-05-01T19:00:15.743Z,80.40
2018-05-01T19:02:44.035Z,80.50
2018-05-01T19:05:12.351Z,79.70
2018-05-01T19:07:40.638Z,78.40
2018-05-01T19:10:09.015Z,78.70
2018-05-01T19:12:37.311Z,79.70
2018-05-01T19:15:05.594Z,78.30
2018-05-01T19:17:33.925Z,77.90
2018-05-01T19:20:02.304Z,78.50
2018-05-01T19:22:30.754Z,79.40
2018-05-01T19:24:59.451Z,80.10
2018-05-01T19:27:27.763Z,84.80
2018-05-01T19:29:56.088Z,81.00
2018-05-01T19:32:24.367Z,84.00
2018-05-01T19:34:52.647Z,80.70
2018-05-01T19:37:20.967Z,82.50
2018-05-01T19:39:50.586Z,81.50
2018-05-01T19:42:18.634Z,82.10
2018-05-01T19:44:47.846Z,82.70
2018-05-01T19:47:16.904Z,83.10
2018-05-01T19:49:45.276Z,83.10
2018-05-01T19:52:13.747Z,83.10
2018-05-01T19:54:42.022Z,84.10
2018-05-01T19:57:10.298Z,85.80
2018-05-01T19:59:38.630Z,84.80
2018-05-01T20:02:06.906Z,84.80
2018-05-01T20:04:35.814Z,84.80
2018-05-01T20:07:04.138Z,83.80
2018-05-01T20:09:32.934Z,83.20
2018-05-01T20:12:01.218Z,84.10
2018-05-01T20:14:29.539Z,83.90
2018-05-01T20:16:57.858Z,83.60
2018-05-01T20:19:26.127Z,84.00
2018-05-01T20:21:54.471Z,83.20
2018-05-01T20:24:22.749Z,83.10
2018-05-01T20:26:51.124Z,82.90
2018-05-01T20:29:19.535Z,82.00
2018-05-01T20:31:47.811Z,81.90
2018-05-01T20:34:16.086Z,81.90
2018-05-01T20:36:45.178Z,82.30
2018-05-01T20:39:13.609Z,82.20
2018-05-01T20:41:42.006Z,82.40
2018-05-01T20:44:10.359Z,82.60
2018-05-01T20:46:38.864Z,83.20
2018-05-01T20:49:07.770Z,83.60
2018-05-01T20:51:35.870Z,83.40
2018-05-01T20:54:05.586Z,85.60
2018-05-01T20:56:34.037Z,85.60
2018-05-01T20:59:02.381Z,86.50
2018-05-01T21:01:30.957Z,87.20
2018-05-01T21:03:59.282Z,87.10
2018-05-01T21:06:27.867Z,87.70
2018-05-01T21:09:02.475Z,88.50
2018-05-01T21:11:30.621Z,89.00
2018-05-01T21:13:58.935Z,89.90
2018-05-01T21:16:28.028Z,90.30
2018-05-01T21:18:56.991Z,90.70
2018-05-01T21:21:25.671Z,91.10
2018-05-01T21:23:53.998Z,91.40
2018-05-01T21:26:25.362Z,92.20
2018-05-01T21:28:53.751Z,93.30
2018-05-01T21:31:23.712Z,94.50
2018-05-01T21:33:52.742Z,94.50
2018-05-01T21:36:21.181Z,97.30
2018-05-01T21:38:49.438Z,95.50
2018-05-01T21:41:18.102Z,95.40
2018-05-01T21:43:46.420Z,96.40
2018-05-01T21:46:14.962Z,96.60
2018-05-01T21:48:43.337Z,99.90
2018-05-01T21:51:11.618Z,99.30
2018-05-01T21:53:40.750Z,98.30
2018-05-01T21:56:09.721Z,97.80
2018-05-01T21:58:38.442Z,97.40
2018-05-01T22:01:06.935Z,98.70
2018-05-01T22:03:35.862Z,99.80
2018-05-01T22:06:04.307Z,99.30
2018-05-01T22:08:32.692Z,99.90
2018-05-01T22:11:01.715Z,99.90
2018-05-01T22:13:30.819Z,99.90
2018-05-01T22:15:59.125Z,99.90
2018-05-01T22:18:27.459Z,99.90
2018-05-01T22:20:56.427Z,99.90
2018-05-01T22:23:24.926Z,99.90
2018-05-01T22:25:53.626Z,99.90
2018-05-01T22:28:21.913Z,99.90
2018-05-01T22:30:50.250Z,99.90
2018-05-01T22:33:19.379Z,99.90
2018-05-01T22:35:48.361Z,99.90
2018-05-01T22:38:16.635Z,99.90
2018-05-01T22:40:45.267Z,99.90
2018-05-01T22:43:13.328Z,99.90
2018-05-01T22:45:41.607Z,99.90
2018-05-01T22:48:09.882Z,99.90
2018-05-01T22:50:38.359Z,99.90
2018-05-01T22:53:06.634Z,99.90
2018-05-01T22:55:35.425Z,99.90
2018-05-01T22:58:04.779Z,99.90
2018-05-01T23:00:33.062Z,99.90
2018-05-01T23:03:01.397Z,99.90
2018-05-01T23:05:30.051Z,99.90
2018-05-01T23:07:59.502Z,99.90
2018-05-01T23:10:27.827Z,99.90
2018-05-01T23:12:56.110Z,99.90
2018-05-01T23:15:24.373Z,99.90
2018-05-01T23:17:52.717Z,99.90
2018-05-01T23:20:20.991Z,99.90
2018-05-01T23:22:49.263Z,99.90
2018-05-01T23:25:17.562Z,99.90
2018-05-01T23:27:46.050Z,99.90
2018-05-01T23:30:14.335Z,99.90
2018-05-01T23:32:42.615Z,99.90
2018-05-01T23:35:10.939Z,99.90
2018-05-01T23:37:40.026Z,99.90
2018-05-01T23:40:09.118Z,99.90
2018-05-01T23:42:38.299Z,99.90
2018-05-01T23:45:06.986Z,99.90
2018-05-01T23:47:35.303Z,99.90
2018-05-01T23:50:03.590Z,99.90
2018-05-01T23:52:32.507Z,99.90
2018-05-01T23:55:00.947Z,99.90
2018-05-01T23:57:29.223Z,99.90
2018-05-01T23:59:57.556Z,99.90
